sensor_id;sensor_type;location;lat;lon;timestamp;P1;durP1;ratioP1;P2;durP2;ratioP2
35243;SDS011;37916;52.160;21.066;2023-07-31T00:07:46;2.10;;;1.50;;
35243;SDS011;37916;52.160;21.066;2023-07-31T00:17:47;3.25;;;1.98;;
35243;SDS011;37916;52.160;21.066;2023-07-31T00:27:48;2.97;;;1.80;;
35243;SDS011;37916;52.160;21.066;2023-07-31T00:37:49;2.42;;;1.58;;
35243;SDS011;37916;52.160;21.066;2023-07-31T00:47:50;2.60;;;1.50;;
35243;SDS011;37916;52.160;21.066;2023-07-31T00:57:51;3.30;;;1.33;;
35243;SDS011;37916;52.160;21.066;2023-07-31T01:08:04;2.47;;;1.48;;
35243;SDS011;37916;52.160;21.066;2023-07-31T01:18:07;2.67;;;1.50;;
35243;SDS011;37916;52.160;21.066;2023-07-31T01:28:10;3.13;;;1.90;;
35243;SDS011;37916;52.160;21.066;2023-07-31T01:38:12;3.00;;;1.70;;
35243;SDS011;37916;52.160;21.066;2023-07-31T01:48:13;6.03;;;2.10;;
35243;SDS011;37916;52.160;21.066;2023-07-31T01:58:14;2.53;;;1.70;;
35243;SDS011;37916;52.160;21.066;2023-07-31T02:08:16;5.20;;;2.85;;
35243;SDS011;37916;52.160;21.066;2023-07-31T02:18:17;3.00;;;1.77;;
35243;SDS011;37916;52.160;21.066;2023-07-31T02:28:18;4.30;;;2.13;;
35243;SDS011;37916;52.160;21.066;2023-07-31T02:38:19;3.33;;;2.20;;
35243;SDS011;37916;52.160;21.066;2023-07-31T02:48:23;3.22;;;2.50;;
35243;SDS011;37916;52.160;21.066;2023-07-31T02:58:24;4.20;;;2.47;;
35243;SDS011;37916;52.160;21.066;2023-07-31T03:08:25;3.53;;;2.17;;
35243;SDS011;37916;52.160;21.066;2023-07-31T03:18:26;3.85;;;2.20;;
35243;SDS011;37916;52.160;21.066;2023-07-31T03:28:27;3.40;;;2.40;;
35243;SDS011;37916;52.160;21.066;2023-07-31T03:38:28;4.68;;;2.70;;
35243;SDS011;37916;52.160;21.066;2023-07-31T03:48:29;3.92;;;2.42;;
35243;SDS011;37916;52.160;21.066;2023-07-31T03:58:30;8.60;;;2.63;;
35243;SDS011;37916;52.160;21.066;2023-07-31T04:08:31;4.22;;;2.05;;
35243;SDS011;37916;52.160;21.066;2023-07-31T04:18:32;4.95;;;2.38;;
35243;SDS011;37916;52.160;21.066;2023-07-31T04:38:57;4.03;;;2.10;;
35243;SDS011;37916;52.160;21.066;2023-07-31T04:48:58;6.97;;;2.15;;
35243;SDS011;37916;52.160;21.066;2023-07-31T04:58:59;5.22;;;2.40;;
35243;SDS011;37916;52.160;21.066;2023-07-31T05:09:00;4.05;;;2.30;;
35243;SDS011;37916;52.160;21.066;2023-07-31T05:19:01;6.43;;;2.35;;
35243;SDS011;37916;52.160;21.066;2023-07-31T05:29:02;3.15;;;2.20;;
35243;SDS011;37916;52.160;21.066;2023-07-31T05:39:03;3.20;;;2.00;;
35243;SDS011;37916;52.160;21.066;2023-07-31T05:49:08;5.07;;;2.30;;
35243;SDS011;37916;52.160;21.066;2023-07-31T05:59:10;5.70;;;2.92;;
35243;SDS011;37916;52.160;21.066;2023-07-31T06:09:11;3.47;;;2.22;;
35243;SDS011;37916;52.160;21.066;2023-07-31T06:19:12;3.88;;;2.60;;
35243;SDS011;37916;52.160;21.066;2023-07-31T06:29:13;5.00;;;1.95;;
35243;SDS011;37916;52.160;21.066;2023-07-31T06:39:14;4.47;;;2.15;;
35243;SDS011;37916;52.160;21.066;2023-07-31T06:49:15;11.50;;;2.58;;
35243;SDS011;37916;52.160;21.066;2023-07-31T06:59:16;6.20;;;2.42;;
35243;SDS011;37916;52.160;21.066;2023-07-31T07:09:17;5.47;;;2.47;;
35243;SDS011;37916;52.160;21.066;2023-07-31T07:19:18;6.35;;;2.10;;
35243;SDS011;37916;52.160;21.066;2023-07-31T07:29:19;4.63;;;2.05;;
35243;SDS011;37916;52.160;21.066;2023-07-31T07:39:20;5.68;;;2.00;;
35243;SDS011;37916;52.160;21.066;2023-07-31T07:49:21;2.88;;;1.90;;
35243;SDS011;37916;52.160;21.066;2023-07-31T07:59:22;3.95;;;2.00;;
35243;SDS011;37916;52.160;21.066;2023-07-31T08:09:23;4.88;;;1.52;;
35243;SDS011;37916;52.160;21.066;2023-07-31T08:19:24;5.60;;;1.70;;
35243;SDS011;37916;52.160;21.066;2023-07-31T08:29:25;2.90;;;1.33;;
35243;SDS011;37916;52.160;21.066;2023-07-31T08:39:26;3.63;;;2.03;;
35243;SDS011;37916;52.160;21.066;2023-07-31T08:49:27;3.60;;;1.65;;
35243;SDS011;37916;52.160;21.066;2023-07-31T08:59:30;3.55;;;1.73;;
35243;SDS011;37916;52.160;21.066;2023-07-31T09:09:31;2.67;;;1.80;;
35243;SDS011;37916;52.160;21.066;2023-07-31T09:29:34;2.97;;;1.53;;
35243;SDS011;37916;52.160;21.066;2023-07-31T09:39:56;4.07;;;1.70;;
35243;SDS011;37916;52.160;21.066;2023-07-31T09:49:58;3.03;;;1.73;;
35243;SDS011;37916;52.160;21.066;2023-07-31T09:59:59;4.30;;;1.70;;
35243;SDS011;37916;52.160;21.066;2023-07-31T10:10:01;2.40;;;1.40;;
35243;SDS011;37916;52.160;21.066;2023-07-31T10:20:02;3.70;;;1.30;;
35243;SDS011;37916;52.160;21.066;2023-07-31T10:30:08;2.70;;;1.38;;
35243;SDS011;37916;52.160;21.066;2023-07-31T10:40:17;1.65;;;0.98;;
35243;SDS011;37916;52.160;21.066;2023-07-31T10:50:21;2.55;;;1.30;;
35243;SDS011;37916;52.160;21.066;2023-07-31T11:00:28;2.95;;;1.27;;
35243;SDS011;37916;52.160;21.066;2023-07-31T11:10:29;2.50;;;1.23;;
35243;SDS011;37916;52.160;21.066;2023-07-31T11:20:30;4.65;;;1.42;;
35243;SDS011;37916;52.160;21.066;2023-07-31T11:30:32;4.30;;;1.15;;
35243;SDS011;37916;52.160;21.066;2023-07-31T11:40:40;10.37;;;1.63;;
35243;SDS011;37916;52.160;21.066;2023-07-31T11:50:45;2.50;;;1.02;;
35243;SDS011;37916;52.160;21.066;2023-07-31T12:00:46;4.03;;;1.38;;
35243;SDS011;37916;52.160;21.066;2023-07-31T12:10:49;5.90;;;1.00;;
35243;SDS011;37916;52.160;21.066;2023-07-31T12:20:55;2.78;;;0.85;;
35243;SDS011;37916;52.160;21.066;2023-07-31T12:30:59;2.63;;;1.08;;
35243;SDS011;37916;52.160;21.066;2023-07-31T12:41:00;3.50;;;1.13;;
35243;SDS011;37916;52.160;21.066;2023-07-31T12:51:01;2.90;;;1.10;;
35243;SDS011;37916;52.160;21.066;2023-07-31T13:01:03;3.23;;;1.07;;
35243;SDS011;37916;52.160;21.066;2023-07-31T13:11:04;3.83;;;1.10;;
35243;SDS011;37916;52.160;21.066;2023-07-31T13:21:05;6.50;;;2.23;;
35243;SDS011;37916;52.160;21.066;2023-07-31T13:31:08;6.07;;;4.20;;
35243;SDS011;37916;52.160;21.066;2023-07-31T13:41:11;6.20;;;3.03;;
35243;SDS011;37916;52.160;21.066;2023-07-31T13:51:12;5.23;;;2.17;;
35243;SDS011;37916;52.160;21.066;2023-07-31T14:01:13;3.33;;;1.87;;
35243;SDS011;37916;52.160;21.066;2023-07-31T14:11:14;5.60;;;1.77;;
35243;SDS011;37916;52.160;21.066;2023-07-31T14:21:15;4.75;;;1.60;;
35243;SDS011;37916;52.160;21.066;2023-07-31T14:31:19;3.90;;;1.33;;
35243;SDS011;37916;52.160;21.066;2023-07-31T14:41:20;3.38;;;1.23;;
35243;SDS011;37916;52.160;21.066;2023-07-31T14:51:21;3.60;;;1.10;;
35243;SDS011;37916;52.160;21.066;2023-07-31T15:01:23;3.22;;;1.00;;
35243;SDS011;37916;52.160;21.066;2023-07-31T15:21:25;3.80;;;1.27;;
35243;SDS011;37916;52.160;21.066;2023-07-31T15:31:26;4.22;;;1.30;;
35243;SDS011;37916;52.160;21.066;2023-07-31T15:41:27;4.78;;;1.05;;
35243;SDS011;37916;52.160;21.066;2023-07-31T15:51:29;4.32;;;1.10;;
35243;SDS011;37916;52.160;21.066;2023-07-31T16:01:30;3.15;;;1.60;;
35243;SDS011;37916;52.160;21.066;2023-07-31T16:11:31;4.18;;;1.42;;
35243;SDS011;37916;52.160;21.066;2023-07-31T16:21:35;2.38;;;1.15;;
35243;SDS011;37916;52.160;21.066;2023-07-31T16:31:39;4.32;;;1.58;;
35243;SDS011;37916;52.160;21.066;2023-07-31T16:41:40;3.42;;;1.10;;
35243;SDS011;37916;52.160;21.066;2023-07-31T16:51:41;4.75;;;1.70;;
35243;SDS011;37916;52.160;21.066;2023-07-31T17:01:42;3.60;;;1.15;;
35243;SDS011;37916;52.160;21.066;2023-07-31T17:11:43;6.50;;;1.80;;
35243;SDS011;37916;52.160;21.066;2023-07-31T17:21:44;3.92;;;1.50;;
35243;SDS011;37916;52.160;21.066;2023-07-31T17:31:45;3.78;;;1.95;;
35243;SDS011;37916;52.160;21.066;2023-07-31T17:41:46;5.22;;;1.95;;
35243;SDS011;37916;52.160;21.066;2023-07-31T17:51:48;5.17;;;1.50;;
35243;SDS011;37916;52.160;21.066;2023-07-31T18:01:49;3.03;;;1.30;;
35243;SDS011;37916;52.160;21.066;2023-07-31T18:11:53;3.35;;;1.30;;
35243;SDS011;37916;52.160;21.066;2023-07-31T18:43:09;3.58;;;1.40;;
35243;SDS011;37916;52.160;21.066;2023-07-31T18:53:10;7.43;;;1.73;;
35243;SDS011;37916;52.160;21.066;2023-07-31T19:03:12;4.80;;;1.45;;
35243;SDS011;37916;52.160;21.066;2023-07-31T19:13:16;7.65;;;1.80;;
35243;SDS011;37916;52.160;21.066;2023-07-31T19:23:17;6.40;;;1.90;;
35243;SDS011;37916;52.160;21.066;2023-07-31T20:25:27;4.55;;;2.10;;
35243;SDS011;37916;52.160;21.066;2023-07-31T20:35:31;5.70;;;2.15;;
35243;SDS011;37916;52.160;21.066;2023-07-31T20:45:37;5.53;;;2.45;;
35243;SDS011;37916;52.160;21.066;2023-07-31T20:55:40;7.38;;;2.47;;
35243;SDS011;37916;52.160;21.066;2023-07-31T21:05:48;8.00;;;2.50;;
35243;SDS011;37916;52.160;21.066;2023-07-31T21:15:49;6.88;;;2.10;;
35243;SDS011;37916;52.160;21.066;2023-07-31T21:25:50;3.83;;;2.17;;
35243;SDS011;37916;52.160;21.066;2023-07-31T21:35:51;10.68;;;2.72;;
35243;SDS011;37916;52.160;21.066;2023-07-31T21:45:52;6.13;;;2.30;;
35243;SDS011;37916;52.160;21.066;2023-07-31T21:55:53;5.13;;;2.22;;
35243;SDS011;37916;52.160;21.066;2023-07-31T22:05:54;4.10;;;2.00;;
35243;SDS011;37916;52.160;21.066;2023-07-31T22:15:55;5.03;;;2.25;;
35243;SDS011;37916;52.160;21.066;2023-07-31T22:25:56;6.80;;;2.60;;
35243;SDS011;37916;52.160;21.066;2023-07-31T22:35:57;4.28;;;2.55;;
35243;SDS011;37916;52.160;21.066;2023-07-31T22:45:58;5.03;;;2.08;;
35243;SDS011;37916;52.160;21.066;2023-07-31T22:56:06;4.65;;;2.45;;
35243;SDS011;37916;52.160;21.066;2023-07-31T23:06:07;5.75;;;2.22;;
35243;SDS011;37916;52.160;21.066;2023-07-31T23:16:08;5.65;;;2.55;;
35243;SDS011;37916;52.160;21.066;2023-07-31T23:26:09;4.18;;;2.58;;
35243;SDS011;37916;52.160;21.066;2023-07-31T23:36:10;6.55;;;2.92;;
35243;SDS011;37916;52.160;21.066;2023-07-31T23:46:11;5.47;;;2.40;;
35243;SDS011;37916;52.160;21.066;2023-07-31T23:56:12;7.20;;;2.40;;
